Minneapolis, Minnesota
Current Conditions -  °F | °C
As of 9:53 AM on Friday 24 Oct 2014 (Local Time) from KMSP Reporting Station
Broken Clouds Broken Clouds  
Wind Chill: 53°   Ceiling: 25000
Heat Index: 53°   Visibility: 9mi
Dew Point: 47°   Wind: 8mph
Humidity: 80%   Direction: 130°SE
Pressure: 29.89"   Gusts: NA
Location:  44.98°N, 93.26°W
Report Text: KMSP 241453Z 13007KT 9SM BKN250 12/08 A2989 RMK AO2 SLP122 T01170083 56003
Loading
Personal Weather Stations






























Interactive Weather Map New forecast layout! Learn more

10-Day Weather Forecast

Advertisements
Track Severe Weather on mobile